Impacts TAF Board INFO
FOR SITUATIONAL AWARENESS. NOT TO BE USED FOR FLIGHT PLANNING PURPOSES.
IDs:

KISP - Islip/Macarthur Arpt, NY, US

Issued at 0249 UTC 11 Dec 2017
Updated at 0405 UTC 11 Dec 2017
Potential Impact None Slight Moderate High
Time<<11/17Z 11/18Z 11/19Z 11/20Z 11/21Z 11/22Z 11/23Z 12/00Z 12/01Z 12/02Z 12/03Z 12/04Z 12/05Z>>
Type PRVL PRVL PRVL PRVL PRVL PRVL PRVL
VIS >6 >6 >6 >6 >6 >6 >6
CIG -- -- -- -- -- -- --
Cover SCT SCT SCT SCT SCT SCT SCT
FltCat VFR VFR VFR VFR VFR VFR VFR
WX -- -- -- -- -- -- --
WDir 280 280 280 280 280 280 280
WSpd 12 12 12 12 7 7 7
WGst 18 18 18 18 -- -- --

Raw TAF
KISP 110249Z 1103/1124 25009G15KT P6SM BKN050
  FM110600 25010G16KT P6SM -SHSN SCT030 OVC050
  FM110900 25009G15KT P6SM -SHSN OVC030
  FM111300 27010G16KT P6SM BKN030
  FM111500 28012G18KT P6SM SCT030
  FM111600 28012G18KT P6SM FEW030 SCT250
  FM112100 28007KT P6SM FEW030 SCT250


METAR Board
Radar Display
Forecast Discussion

FOR SITUATIONAL AWARENESS. NOT TO BE USED FOR FLIGHT PLANNING PURPOSES.